Time;durP1;ratioP1;P1;durP2;ratioP2;P2;SDS_P1;SDS_P2;PMS_P1;PMS_P2;Temp;Humidity;BMP_temperature;BMP_pressure;BME280_temperature;BME280_humidity;BME280_pressure;Samples;Min_cycle;Max_cycle;Signal;HPM_P1;HPM_P2
2024/03/22 00:01:09;;;;;;;35.20;26.80;;;;;;;10.85;100.00;102127.91;5110339;28;20122;-39
2024/03/22 00:03:34;;;;;;;31.50;25.27;;;;;;;10.89;100.00;102126.47;5109883;28;20261;-39
2024/03/22 00:06:00;;;;;;;31.93;25.63;;;;;;;10.89;100.00;102112.94;5101753;28;20532;-39
2024/03/22 00:08:25;;;;;;;37.13;27.20;;;;;;;10.86;100.00;102109.78;5096711;28;20024;-39
2024/03/22 00:10:50;;;;;;;36.03;26.67;;;;;;;10.93;100.00;102108.78;5096680;28;20392;-40
2024/03/22 00:13:16;;;;;;;33.63;27.37;;;;;;;10.93;100.00;102102.53;5096280;28;20365;-40
2024/03/22 00:15:44;;;;;;;32.63;26.07;;;;;;;10.97;100.00;102115.44;5096112;28;20630;-40
2024/03/22 00:18:09;;;;;;;34.55;25.83;;;;;;;10.99;100.00;102107.97;5096145;28;20032;-40
2024/03/22 00:20:34;;;;;;;35.92;27.30;;;;;;;10.95;100.00;102101.28;5096491;28;20036;-40
2024/03/22 00:23:00;;;;;;;37.40;27.83;;;;;;;11.02;100.00;102106.72;5095895;28;20076;-40
2024/03/22 00:25:25;;;;;;;33.10;25.73;;;;;;;10.98;100.00;102094.63;5096724;28;20277;-40
2024/03/22 00:27:50;;;;;;;34.93;26.90;;;;;;;11.06;100.00;102095.28;5095731;28;20259;-39
2024/03/22 00:30:15;;;;;;;32.97;26.30;;;;;;;11.07;100.00;102091.53;5096547;28;20081;-40
2024/03/22 00:32:44;;;;;;;34.93;26.03;;;;;;;11.07;100.00;102096.94;5096544;28;20097;-40
2024/03/22 00:35:09;;;;;;;35.75;27.73;;;;;;;11.06;100.00;102081.75;5096095;28;20028;-40
2024/03/22 00:37:34;;;;;;;32.95;26.13;;;;;;;11.13;100.00;102080.97;5096143;28;20466;-40
2024/03/22 00:39:59;;;;;;;36.23;27.27;;;;;;;11.08;100.00;102066.16;5096157;28;20100;-40
2024/03/22 00:42:25;;;;;;;32.20;25.45;;;;;;;11.14;100.00;102071.78;5095763;28;20036;-40
2024/03/22 00:44:50;;;;;;;33.17;25.47;;;;;;;11.12;100.00;102057.59;5095761;28;20035;-40
2024/03/22 00:47:15;;;;;;;33.55;26.23;;;;;;;11.18;100.00;102057.63;5095620;28;20369;-40
2024/03/22 00:49:41;;;;;;;29.77;25.00;;;;;;;11.18;100.00;102049.53;5095958;28;20024;-40
2024/03/22 00:52:06;;;;;;;32.63;26.23;;;;;;;11.18;100.00;102035.16;5095608;28;20032;-39
2024/03/22 00:54:31;;;;;;;32.80;26.03;;;;;;;11.21;100.00;102037.44;5095341;28;20385;-39
2024/03/22 00:56:57;;;;;;;30.17;25.00;;;;;;;11.19;100.00;102029.53;5095485;28;20024;-39
2024/03/22 00:59:22;;;;;;;28.92;25.70;;;;;;;11.14;100.00;102006.81;5095416;28;20016;-39
2024/03/22 01:01:48;;;;;;;29.83;25.90;;;;;;;11.18;100.00;102017.03;5095716;28;20028;-39
2024/03/22 01:04:13;;;;;;;;;;;;;;;11.26;100.00;102014.09;5096287;28;20266;-39
2024/03/22 01:06:39;;;;;;;29.73;23.73;;;;;;;11.18;100.00;102013.50;5095813;28;19914;-39
2024/03/22 01:09:05;;;;;;;32.95;25.75;;;;;;;11.13;100.00;102003.28;5095239;28;20027;-39
2024/03/22 01:11:31;;;;;;;;;;;;;;;11.25;100.00;102012.44;5095870;28;20441;-40
2024/03/22 01:13:56;;;;;;;30.23;24.05;;;;;;;11.21;100.00;102004.94;5094815;28;19966;-40
2024/03/22 01:16:22;;;;;;;32.55;25.20;;;;;;;11.18;100.00;101989.13;5095508;28;20031;-40
2024/03/22 01:18:48;;;;;;;32.17;24.90;;;;;;;11.18;100.00;101997.25;5094725;28;20040;-40
2024/03/22 01:21:13;;;;;;;;;;;;;;;11.21;100.00;102008.47;5095946;28;20024;-40
2024/03/22 01:23:39;;;;;;;31.95;25.83;;;;;;;11.18;100.00;102013.50;5095186;28;19911;-40
2024/03/22 01:26:04;;;;;;;34.70;26.73;;;;;;;11.11;100.00;101999.09;5094872;28;20024;-39
2024/03/22 01:28:29;;;;;;;31.20;24.35;;;;;;;11.17;100.00;102007.22;5095100;28;20032;-39
2024/03/22 01:30:55;;;;;;;29.47;25.67;;;;;;;11.18;100.00;101991.84;5094565;28;20035;-39
2024/03/22 01:33:20;;;;;;;31.97;25.80;;;;;;;11.18;100.00;101997.25;5094692;28;20027;-39
2024/03/22 01:35:45;;;;;;;31.20;25.53;;;;;;;11.17;100.00;101988.25;5094901;28;20262;-39
2024/03/22 01:38:11;;;;;;;28.70;24.80;;;;;;;11.15;100.00;101981.41;5094780;28;20099;-40
2024/03/22 01:40:36;;;;;;;27.93;24.70;;;;;;;11.13;100.00;101983.50;5094916;28;20738;-39
2024/03/22 01:43:01;;;;;;;30.30;25.57;;;;;;;11.09;100.00;101978.50;5094531;28;20278;-40
2024/03/22 01:45:32;;;;;;;30.87;25.63;;;;;;;11.09;100.00;101972.25;5094902;28;20721;-40
2024/03/22 01:47:59;;;;;;;29.95;23.85;;;;;;;11.11;100.00;101966.63;5094996;28;20024;-39
2024/03/22 01:50:25;;;;;;;28.13;24.85;;;;;;;11.11;100.00;101972.03;5094444;28;20387;-40
2024/03/22 01:52:50;;;;;;;27.52;23.58;;;;;;;11.09;100.00;101972.25;5094386;28;20020;-40
2024/03/22 01:55:16;;;;;;;29.10;24.70;;;;;;;11.08;100.00;101976.81;5095321;28;20051;-40
2024/03/22 01:57:42;;;;;;;29.90;24.58;;;;;;;11.07;100.00;101980.56;5094320;28;20034;-40
2024/03/22 02:00:10;;;;;;;33.58;25.67;;;;;;;11.06;100.00;101978.06;5094522;28;20039;-39
2024/03/22 02:02:36;;;;;;;29.80;24.30;;;;;;;11.02;100.00;101974.09;5093921;28;20488;-39
2024/03/22 02:05:15;;;;;;;27.15;23.83;;;;;;;11.05;100.00;101977.22;5094427;28;20028;-40
2024/03/22 02:07:42;;;;;;;28.27;23.90;;;;;;;11.02;100.00;101971.38;5094366;28;20024;-40
2024/03/22 02:10:10;;;;;;;28.42;24.58;;;;;;;11.00;100.00;101974.31;5094064;28;20059;-39
2024/03/22 02:12:36;;;;;;;28.30;23.63;;;;;;;11.01;100.00;101978.69;5093707;28;20028;-40
2024/03/22 02:15:02;;;;;;;27.60;23.88;;;;;;;10.97;100.00;101966.59;5093624;28;20487;-40
2024/03/22 02:17:28;;;;;;;27.20;24.33;;;;;;;11.00;100.00;101974.31;5093896;28;20028;-40
2024/03/22 02:19:53;;;;;;;29.03;25.37;;;;;;;10.94;100.00;101960.78;5094276;28;20024;-40
2024/03/22 02:22:18;;;;;;;29.73;24.73;;;;;;;10.93;100.00;101959.94;5093893;28;20323;-40
2024/03/22 02:24:43;;;;;;;28.43;23.67;;;;;;;10.97;100.00;101969.28;5094209;28;20035;-40
2024/03/22 02:27:09;;;;;;;29.43;25.07;;;;;;;10.96;100.00;101961.41;5094314;28;20118;-40
2024/03/22 02:29:34;;;;;;;30.43;24.63;;;;;;;10.94;100.00;101967.03;5093360;28;20640;-40
2024/03/22 02:31:59;;;;;;;29.33;24.67;;;;;;;10.93;100.00;101962.66;5093507;28;20555;-40
2024/03/22 02:34:25;;;;;;;33.37;25.30;;;;;;;10.93;100.00;101965.38;5093366;28;20035;-40
2024/03/22 02:36:50;;;;;;;27.50;24.50;;;;;;;10.92;100.00;101954.72;5093405;28;20028;-39
2024/03/22 02:39:15;;;;;;;32.13;25.53;;;;;;;10.92;100.00;101952.00;5094039;28;20282;-47
2024/03/22 02:41:40;;;;;;;29.43;24.17;;;;;;;10.91;100.00;101942.25;5093927;28;20055;-39
2024/03/22 02:44:06;;;;;;;28.30;23.97;;;;;;;10.86;100.00;101923.06;5094434;28;20059;-39
2024/03/22 02:46:31;;;;;;;28.70;23.33;;;;;;;10.85;100.00;101924.97;5093266;28;20107;-39
2024/03/22 02:48:56;;;;;;;26.20;23.50;;;;;;;10.90;100.00;101941.41;5094172;28;20081;-39
2024/03/22 02:51:22;;;;;;;26.60;23.60;;;;;;;10.85;100.00;101916.84;5093255;28;20023;-39
2024/03/22 02:53:47;;;;;;;25.47;22.67;;;;;;;10.86;100.00;101921.22;5093643;28;20298;-39
2024/03/22 02:56:13;;;;;;;27.38;23.35;;;;;;;10.86;100.00;101918.50;5093433;28;20032;-39
2024/03/22 02:58:38;;;;;;;28.02;23.55;;;;;;;10.87;100.00;101924.75;5093252;28;20032;-39
2024/03/22 03:01:03;;;;;;;27.70;23.80;;;;;;;10.85;100.00;101916.00;5093171;28;20052;-39
2024/03/22 03:03:29;;;;;;;32.20;24.80;;;;;;;10.76;100.00;101901.84;5093513;28;20262;-39
2024/03/22 03:05:54;;;;;;;31.37;24.00;;;;;;;10.82;100.00;101909.13;5093386;28;20086;-39
2024/03/22 03:08:19;;;;;;;25.20;22.57;;;;;;;10.81;100.00;101899.34;5093968;28;20020;-39
2024/03/22 03:10:45;;;;;;;27.13;22.87;;;;;;;10.70;100.00;101891.84;5093859;28;20319;-39
2024/03/22 03:13:11;;;;;;;27.80;22.92;;;;;;;10.78;100.00;101907.88;5092966;28;20301;-39
2024/03/22 03:15:36;;;;;;;26.70;23.80;;;;;;;10.74;100.00;101887.69;5093223;28;20055;-39
2024/03/22 03:18:01;;;;;;;26.23;22.97;;;;;;;10.76;100.00;101886.44;5093251;28;20024;-39
2024/03/22 03:20:27;;;;;;;26.93;22.77;;;;;;;10.73;100.00;101880.59;5093591;28;20308;-39
2024/03/22 03:22:52;;;;;;;28.00;23.40;;;;;;;10.71;100.00;101871.88;5093235;28;20447;-39
2024/03/22 03:25:17;;;;;;;25.98;22.80;;;;;;;10.69;100.00;101866.69;5093329;28;20062;-39
2024/03/22 03:27:43;;;;;;;26.47;22.47;;;;;;;10.67;100.00;101867.91;5093237;28;20046;-39
2024/03/22 03:30:08;;;;;;;25.57;22.43;;;;;;;10.66;100.00;101860.84;5093199;28;20295;-39
2024/03/22 03:32:33;;;;;;;26.30;23.02;;;;;;;10.66;100.00;101863.53;5093093;28;20067;-39
2024/03/22 03:34:59;;;;;;;28.87;24.10;;;;;;;10.63;100.00;101863.94;5093085;28;20028;-39
2024/03/22 03:37:24;;;;;;;26.83;23.47;;;;;;;10.59;100.00;101858.13;5093185;28;20266;-39
2024/03/22 03:39:49;;;;;;;28.20;23.77;;;;;;;10.63;100.00;101858.53;5092765;28;20031;-39
2024/03/22 03:42:15;;;;;;;27.53;22.77;;;;;;;10.61;100.00;101863.31;5096546;28;20028;-39
2024/03/22 03:44:41;;;;;;;25.53;22.43;;;;;;;10.61;100.00;101853.34;5097501;28;20253;-40
2024/03/22 03:47:06;;;;;;;;;;;;;;;10.66;100.00;101852.72;5096907;28;20027;-40
2024/03/22 03:49:32;;;;;;;28.98;22.02;;;;;;;10.60;100.00;101853.56;5097108;28;19915;-40
2024/03/22 03:51:57;;;;;;;26.17;23.17;;;;;;;10.56;100.00;101845.00;5097306;28;20527;-40
2024/03/22 03:54:22;;;;;;;24.90;22.17;;;;;;;10.57;100.00;101842.09;5097371;28;20298;-40
2024/03/22 03:56:48;;;;;;;28.50;23.92;;;;;;;10.49;100.00;101830.63;5096636;28;20046;-40
2024/03/22 03:59:13;;;;;;;25.77;22.40;;;;;;;10.57;100.00;101833.16;5096716;28;20032;-40
2024/03/22 04:01:38;;;;;;;29.55;22.23;;;;;;;10.50;100.00;101816.94;5096306;28;20024;-40
2024/03/22 04:04:04;;;;;;;25.33;21.93;;;;;;;10.51;100.00;101826.69;5096366;28;20059;-40
2024/03/22 04:06:29;;;;;;;27.48;22.40;;;;;;;10.54;100.00;101833.56;5096535;28;20060;-39
2024/03/22 04:08:55;;;;;;;25.60;22.00;;;;;;;10.53;100.00;101832.72;5096948;28;20082;-39
2024/03/22 04:11:20;;;;;;;24.63;20.90;;;;;;;10.53;100.00;101831.88;5096696;28;20024;-39
2024/03/22 04:13:47;;;;;;;25.00;22.37;;;;;;;10.51;100.00;101824.00;5096534;28;20292;-39
2024/03/22 04:16:12;;;;;;;26.73;23.13;;;;;;;10.51;100.00;101833.97;5096214;28;20078;-39
2024/03/22 04:18:38;;;;;;;24.57;21.90;;;;;;;10.51;100.00;101821.28;5096354;28;20089;-39
2024/03/22 04:21:04;;;;;;;24.33;21.38;;;;;;;10.52;100.00;101830.22;5096133;28;20311;-39
2024/03/22 04:23:29;;;;;;;24.02;21.52;;;;;;;10.48;100.00;101816.28;5096691;28;20039;-39
2024/03/22 04:25:59;;;;;;;22.37;20.00;;;;;;;10.48;100.00;101823.56;5096140;28;20357;-39
2024/03/22 04:28:28;;;;;;;24.17;20.95;;;;;;;10.50;100.00;101835.03;5096397;28;20016;-39
2024/03/22 04:31:10;;;;;;;27.10;21.30;;;;;;;10.42;100.00;101825.22;5096259;28;20032;-39
2024/03/22 04:33:37;;;;;;;24.05;20.42;;;;;;;10.50;100.00;101826.91;5095869;28;20072;-39
2024/03/22 04:36:03;;;;;;;26.10;21.67;;;;;;;10.49;100.00;101830.63;5095735;28;20060;-40
2024/03/22 04:38:29;;;;;;;23.38;20.55;;;;;;;10.46;100.00;101825.66;5095710;28;20130;-40
2024/03/22 04:40:55;;;;;;;;;;;;;;;10.56;100.00;101831.50;5096167;28;20028;-40
2024/03/22 04:43:20;;;;;;;23.15;20.48;;;;;;;10.49;100.00;101826.09;5095924;28;19930;-40
2024/03/22 04:45:47;;;;;;;24.85;20.95;;;;;;;10.47;100.00;101813.78;5096271;28;20112;-40
2024/03/22 04:48:14;;;;;;;25.63;20.58;;;;;;;10.42;100.00;101808.19;5095584;28;20031;-40
2024/03/22 04:50:40;;;;;;;22.65;20.25;;;;;;;10.44;100.00;101817.75;5095894;28;20024;-40
2024/03/22 04:53:05;;;;;;;24.60;20.80;;;;;;;10.46;100.00;101812.97;5095206;28;20024;-40
2024/03/22 04:55:32;;;;;;;23.83;20.92;;;;;;;10.38;100.00;101809.63;5095518;28;20075;-40
2024/03/22 04:57:58;;;;;;;22.77;20.33;;;;;;;10.38;100.00;101804.22;5095439;28;20126;-39
2024/03/22 05:00:24;;;;;;;22.20;19.90;;;;;;;10.43;100.00;101813.38;5095809;28;20586;-40
2024/03/22 05:02:50;;;;;;;23.95;20.13;;;;;;;10.45;100.00;101818.59;5095787;28;20033;-40
2024/03/22 05:05:15;;;;;;;22.10;19.73;;;;;;;10.37;100.00;101792.56;5095693;28;20024;-40
2024/03/22 05:07:41;;;;;;;25.38;20.90;;;;;;;10.44;100.00;101797.97;5095267;28;20024;-40
2024/03/22 05:10:06;;;;;;;23.73;19.90;;;;;;;10.43;100.00;101805.25;5095555;28;20024;-39
2024/03/22 05:12:32;;;;;;;23.17;19.80;;;;;;;10.34;100.00;101792.97;5095171;28;20320;-39
2024/03/22 05:14:57;;;;;;;26.45;20.27;;;;;;;10.39;100.00;101795.88;5095315;28;20023;-39
2024/03/22 05:17:22;;;;;;;22.50;19.97;;;;;;;10.40;100.00;101802.16;5095025;28;20353;-39
2024/03/22 05:19:48;;;;;;;22.77;20.37;;;;;;;10.37;100.00;101792.56;5095435;28;20238;-38
2024/03/22 05:22:13;;;;;;;21.80;19.40;;;;;;;10.35;100.00;101783.84;5095029;28;20055;-40
2024/03/22 05:24:38;;;;;;;23.10;19.17;;;;;;;10.36;100.00;101785.50;5095352;28;20060;-40
2024/03/22 05:27:04;;;;;;;22.80;19.67;;;;;;;10.32;100.00;101782.38;5094958;28;20376;-40
2024/03/22 05:29:29;;;;;;;23.70;18.98;;;;;;;10.36;100.00;101795.50;5094815;28;20265;-39
2024/03/22 05:31:55;;;;;;;22.13;18.53;;;;;;;10.32;100.00;101792.34;5094550;28;20032;-40
2024/03/22 05:34:20;;;;;;;22.90;19.23;;;;;;;10.30;100.00;101794.44;5095061;28;20755;-41
2024/03/22 05:36:46;;;;;;;21.37;18.53;;;;;;;10.28;100.00;101781.13;5094727;28;20352;-40
2024/03/22 05:39:12;;;;;;;;;;;;;;;10.40;100.00;101789.47;5095648;28;20437;-39
2024/03/22 05:41:37;;;;;;;20.88;18.50;;;;;;;10.29;100.00;101788.19;5095430;28;19908;-40
2024/03/22 05:44:03;;;;;;;21.30;17.77;;;;;;;10.29;100.00;101793.59;5094668;28;20036;-40
2024/03/22 05:46:29;;;;;;;21.23;18.08;;;;;;;10.29;100.00;101790.06;5094252;28;20028;-39
2024/03/22 05:48:55;;;;;;;;;;;;;;;10.36;100.00;101788.22;5095249;28;20016;-39
2024/03/22 05:51:20;;;;;;;24.95;17.83;;;;;;;10.20;100.00;101773.19;5094659;28;19915;-39
2024/03/22 05:53:46;;;;;;;19.53;17.43;;;;;;;10.26;100.00;101783.22;5094774;28;20437;-39
2024/03/22 05:56:11;;;;;;;21.85;18.60;;;;;;;10.26;100.00;101787.78;5094280;28;20266;-39
2024/03/22 05:58:37;;;;;;;19.67;17.53;;;;;;;10.16;100.00;101773.81;5094073;28;20153;-40
2024/03/22 06:01:03;;;;;;;19.73;17.23;;;;;;;10.20;100.00;101777.75;5094217;28;20031;-40
2024/03/22 06:03:29;;;;;;;22.30;18.33;;;;;;;10.25;100.00;101775.31;5094498;28;20269;-40
2024/03/22 06:05:56;;;;;;;;;;;;;;;10.32;100.00;101787.78;5094798;28;20028;-40
2024/03/22 06:08:21;;;;;;;;;;;;;;;10.34;100.00;101784.84;5094600;28;19912;-40
2024/03/22 06:10:47;;;;;;;17.83;14.98;;;;;;;10.26;100.00;101787.78;5094678;28;19919;-40
2024/03/22 06:13:12;;;;;;;18.67;15.13;;;;;;;10.16;100.00;101768.41;5094953;28;20028;-40
2024/03/22 06:15:37;;;;;;;18.17;15.33;;;;;;;10.27;100.00;101778.63;5094241;28;20464;-40
2024/03/22 06:18:03;;;;;;;19.88;15.82;;;;;;;10.28;100.00;101788.41;5094532;28;20055;-40
2024/03/22 06:20:28;;;;;;;17.15;13.90;;;;;;;10.23;100.00;101771.94;5094002;28;20036;-40
2024/03/22 06:22:53;;;;;;;17.87;14.57;;;;;;;10.26;100.00;101779.69;5093966;28;20024;-40
2024/03/22 06:25:18;;;;;;;15.43;13.80;;;;;;;10.27;100.00;101778.63;5093854;28;20035;-40
2024/03/22 06:27:44;;;;;;;16.17;14.00;;;;;;;10.26;100.00;101783.22;5093496;28;20039;-39
2024/03/22 06:30:10;;;;;;;15.17;13.00;;;;;;;10.25;100.00;101788.81;5094661;28;20028;-40
2024/03/22 06:32:35;;;;;;;14.85;13.20;;;;;;;10.21;100.00;101779.44;5093715;28;20270;-39
2024/03/22 06:35:00;;;;;;;16.13;14.37;;;;;;;10.23;100.00;101791.69;5093367;28;20031;-40
2024/03/22 06:37:26;;;;;;;16.85;13.07;;;;;;;10.16;100.00;101771.09;5093691;28;20031;-40
2024/03/22 06:39:51;;;;;;;15.40;13.10;;;;;;;10.23;100.00;101783.56;5093964;28;20033;-40
2024/03/22 06:42:16;;;;;;;14.83;13.20;;;;;;;10.21;100.00;101780.25;5094476;28;20277;-40
2024/03/22 06:44:42;;;;;;;14.87;13.20;;;;;;;10.23;100.00;101777.34;5093307;28;20024;-40
2024/03/22 06:47:07;;;;;;;15.67;13.37;;;;;;;10.24;100.00;101770.91;5093633;28;20276;-39
2024/03/22 06:49:32;;;;;;;15.23;13.30;;;;;;;10.25;100.00;101786.97;5093290;28;20111;-40
2024/03/22 06:51:58;;;;;;;15.73;13.00;;;;;;;10.27;100.00;101782.16;5093421;28;20349;-40
2024/03/22 06:54:24;;;;;;;14.63;12.85;;;;;;;10.32;100.00;101776.97;5094020;28;20084;-40
2024/03/22 06:56:49;;;;;;;14.30;12.80;;;;;;;10.32;100.00;101779.66;5093432;28;20122;-40
2024/03/22 06:59:14;;;;;;;16.03;12.87;;;;;;;10.34;100.00;101770.50;5093729;28;20266;-40
2024/03/22 07:01:40;;;;;;;15.50;13.65;;;;;;;10.30;100.00;101767.41;5093362;28;20027;-38
2024/03/22 07:04:05;;;;;;;15.47;13.83;;;;;;;10.35;100.00;101783.84;5093678;28;20024;-39
2024/03/22 07:06:30;;;;;;;16.27;13.83;;;;;;;10.38;100.00;101775.31;5093562;28;20024;-39
2024/03/22 07:08:56;;;;;;;15.17;13.23;;;;;;;10.42;100.00;101771.16;5093609;28;20649;-40
2024/03/22 07:11:22;;;;;;;16.67;14.27;;;;;;;10.39;100.00;101766.16;5093308;28;20517;-40
2024/03/22 07:13:47;;;;;;;;;;;;;;;10.54;100.00;101772.22;5093350;28;20020;-40
2024/03/22 07:16:12;;;;;;;17.30;14.63;;;;;;;10.49;100.00;101771.13;5094958;28;19965;-40
2024/03/22 07:18:38;;;;;;;17.40;15.50;;;;;;;10.56;100.00;101777.41;5097435;28;20258;-40
2024/03/22 07:21:03;;;;;;;16.33;13.83;;;;;;;10.61;100.00;101774.06;5096073;28;20028;-40
2024/03/22 07:23:29;;;;;;;16.63;14.90;;;;;;;10.63;100.00;101758.44;5096973;28;20039;-39
2024/03/22 07:25:54;;;;;;;16.90;15.13;;;;;;;10.70;100.00;101772.81;5097241;28;20024;-39
2024/03/22 07:28:20;;;;;;;18.90;14.88;;;;;;;10.66;100.00;101771.56;5096919;28;20438;-40
2024/03/22 07:30:45;;;;;;;17.58;15.77;;;;;;;10.73;100.00;101781.31;5097331;28;20038;-40
2024/03/22 07:33:16;;;;;;;17.90;16.03;;;;;;;10.68;100.00;101772.19;5097335;28;20036;-40
2024/03/22 07:35:41;;;;;;;17.75;15.93;;;;;;;10.66;100.00;101771.56;5097243;28;20370;-39
2024/03/22 07:38:07;;;;;;;17.88;16.08;;;;;;;10.62;100.00;101754.09;5097011;28;20059;-39
2024/03/22 07:40:32;;;;;;;16.97;15.33;;;;;;;10.75;100.00;101773.03;5096778;28;20438;-39
2024/03/22 07:42:59;;;;;;;18.13;16.33;;;;;;;10.75;100.00;101767.63;5096927;28;20153;-39
2024/03/22 07:45:24;;;;;;;17.77;15.90;;;;;;;10.79;100.00;101772.41;5096819;28;20035;-39
2024/03/22 07:47:50;;;;;;;19.92;16.92;;;;;;;10.80;100.00;101774.06;5097098;28;20020;-39
2024/03/22 07:50:15;;;;;;;20.48;18.35;;;;;;;10.77;100.00;101760.09;5097097;28;20081;-39
2024/03/22 07:52:40;;;;;;;18.85;17.05;;;;;;;10.86;100.00;101772.38;5096653;28;20495;-39
2024/03/22 07:55:06;;;;;;;18.25;16.45;;;;;;;10.94;100.00;101776.75;5096964;28;20059;-39
2024/03/22 07:57:32;;;;;;;18.45;16.55;;;;;;;10.95;100.00;101779.25;5096630;28;20103;-40
2024/03/22 07:59:58;;;;;;;18.85;17.05;;;;;;;10.91;100.00;101769.88;5097130;28;20032;-39
2024/03/22 08:02:24;;;;;;;18.58;16.63;;;;;;;10.98;100.00;101770.72;5096736;28;20134;-40
2024/03/22 08:04:49;;;;;;;19.55;17.58;;;;;;;10.98;100.00;101762.59;5097394;28;20492;-40
2024/03/22 08:07:14;;;;;;;19.70;17.80;;;;;;;11.02;100.00;101758.41;5096657;28;20024;-40
2024/03/22 08:09:40;;;;;;;19.57;17.63;;;;;;;11.00;100.00;101759.66;5096727;28;20438;-40
2024/03/22 08:12:06;;;;;;;19.40;17.58;;;;;;;11.08;100.00;101771.09;5096332;28;20028;-40
2024/03/22 08:14:31;;;;;;;19.25;17.35;;;;;;;11.12;100.00;101778.78;5095896;28;20392;-40
2024/03/22 08:16:57;;;;;;;19.48;17.40;;;;;;;11.08;100.00;101770.28;5096195;28;20024;-40
2024/03/22 08:19:22;;;;;;;18.77;16.98;;;;;;;11.01;100.00;101772.97;5096357;28;20032;-40
2024/03/22 08:21:48;;;;;;;19.60;17.70;;;;;;;10.95;100.00;101775.69;5096404;28;20430;-40
2024/03/22 08:24:14;;;;;;;20.13;18.23;;;;;;;10.94;100.00;101776.75;5095890;28;20430;-40
2024/03/22 08:26:39;;;;;;;20.07;18.17;;;;;;;10.99;100.00;101774.25;5096191;28;20063;-40
2024/03/22 08:29:04;;;;;;;20.00;18.00;;;;;;;10.92;100.00;101762.59;5096420;28;20024;-40
2024/03/22 08:31:30;;;;;;;18.25;16.50;;;;;;;10.96;100.00;101777.38;5096051;28;20115;-40
2024/03/22 08:33:56;;;;;;;18.93;17.13;;;;;;;10.96;100.00;101775.50;5096196;28;20035;-40
2024/03/22 08:36:23;;;;;;;18.33;16.52;;;;;;;10.97;100.00;101769.03;5095944;28;20745;-40
2024/03/22 08:38:48;;;;;;;18.55;16.85;;;;;;;10.95;100.00;101754.88;5095877;28;20036;-40
2024/03/22 08:41:13;;;;;;;19.50;17.60;;;;;;;11.05;100.00;101759.84;5096120;28;20084;-41
2024/03/22 08:43:39;;;;;;;18.83;16.93;;;;;;;11.05;100.00;101765.28;5095866;28;20055;-39
2024/03/22 08:46:04;;;;;;;18.47;16.77;;;;;;;11.05;100.00;101760.69;5095529;28;20058;-39
2024/03/22 08:48:29;;;;;;;19.10;17.07;;;;;;;11.07;100.00;101755.88;5095477;28;20250;-40
2024/03/22 08:50:55;;;;;;;18.07;16.27;;;;;;;11.11;100.00;101747.34;5095616;28;20024;-39
2024/03/22 08:53:20;;;;;;;19.83;17.92;;;;;;;11.09;100.00;101748.41;5095312;28;20024;-39
2024/03/22 08:55:48;;;;;;;18.33;16.53;;;;;;;11.12;100.00;101746.31;5096138;28;20040;-39
2024/03/22 08:58:18;;;;;;;19.50;17.50;;;;;;;11.09;100.00;101745.69;5095554;28;20269;-39
2024/03/22 09:00:44;;;;;;;18.98;17.25;;;;;;;11.08;100.00;101738.63;5095744;28;20069;-39
2024/03/22 09:03:10;;;;;;;19.27;17.40;;;;;;;11.05;100.00;101749.88;5096164;28;20039;-39
2024/03/22 09:05:36;;;;;;;19.00;17.08;;;;;;;11.04;100.00;101748.22;5096132;28;20364;-39
2024/03/22 09:08:03;;;;;;;18.23;16.42;;;;;;;11.06;100.00;101750.69;5095311;28;20082;-38
2024/03/22 09:10:29;;;;;;;18.83;16.92;;;;;;;11.04;100.00;101752.78;5095519;28;20032;-39
2024/03/22 09:12:55;;;;;;;17.30;15.77;;;;;;;11.07;100.00;101757.75;5095253;28;20574;-39
2024/03/22 09:15:21;;;;;;;16.88;15.07;;;;;;;10.99;100.00;101737.19;5095305;28;20028;-39
2024/03/22 09:17:46;;;;;;;16.55;14.93;;;;;;;11.00;100.00;101741.56;5094809;28;20513;-39
2024/03/22 09:20:12;;;;;;;16.02;14.45;;;;;;;11.07;100.00;101739.66;5095693;28;20137;-39
2024/03/22 09:22:39;;;;;;;16.00;14.37;;;;;;;11.14;100.00;101741.53;5095112;28;20444;-39
2024/03/22 09:25:05;;;;;;;16.40;14.80;;;;;;;11.09;100.00;101740.28;5095515;28;20384;-40
2024/03/22 09:27:31;;;;;;;15.15;13.65;;;;;;;11.18;100.00;101750.88;5095341;28;20035;-38
2024/03/22 09:29:56;;;;;;;16.65;14.30;;;;;;;11.16;100.00;101748.38;5094628;28;20028;-39
2024/03/22 09:32:21;;;;;;;15.15;13.68;;;;;;;11.15;100.00;101733.19;5094553;28;20028;-40
2024/03/22 09:34:49;;;;;;;15.87;14.27;;;;;;;11.18;100.00;101740.06;5095093;28;20071;-39
2024/03/22 09:37:15;;;;;;;14.98;13.38;;;;;;;11.13;100.00;101729.88;5094658;28;20036;-40
2024/03/22 09:39:40;;;;;;;14.23;12.83;;;;;;;11.20;100.00;101730.66;5094483;28;20146;-40
2024/03/22 09:42:06;;;;;;;12.83;11.63;;;;;;;11.20;100.00;101727.13;5095007;28;20032;-40
2024/03/22 09:44:32;;;;;;;14.65;13.15;;;;;;;11.13;100.00;101719.03;5095256;28;20253;-40
2024/03/22 09:46:59;;;;;;;13.52;12.32;;;;;;;11.20;100.00;101725.25;5094632;28;20184;-40
2024/03/22 09:49:25;;;;;;;13.07;11.85;;;;;;;11.21;100.00;101728.78;5094821;28;20076;-40
2024/03/22 09:51:52;;;;;;;15.50;11.05;;;;;;;11.20;100.00;101724.41;5094801;28;20102;-39
2024/03/22 09:54:17;;;;;;;13.52;11.70;;;;;;;11.21;100.00;101718.78;5094211;28;20412;-39
2024/03/22 09:56:43;;;;;;;12.20;11.00;;;;;;;11.23;100.00;101718.59;5094136;28;20032;-40
2024/03/22 09:59:10;;;;;;;14.68;11.77;;;;;;;11.18;100.00;101707.56;5094598;28;20118;-40
2024/03/22 10:01:36;;;;;;;14.88;11.02;;;;;;;11.20;100.00;101719.00;5093973;28;20552;-39
2024/03/22 10:04:01;;;;;;;12.55;11.27;;;;;;;11.21;100.00;101707.13;5094207;28;20065;-39
2024/03/22 10:06:29;;;;;;;13.02;11.48;;;;;;;11.25;100.00;101711.91;5093961;28;20028;-39
2024/03/22 10:08:57;;;;;;;11.68;10.20;;;;;;;11.29;100.00;101705.00;5094455;28;20130;-39
2024/03/22 10:11:23;;;;;;;14.20;11.48;;;;;;;11.24;100.00;101683.16;5094100;28;20020;-39
2024/03/22 10:13:51;;;;;;;12.97;11.67;;;;;;;11.38;100.00;101711.03;5094050;28;20035;-39
2024/03/22 10:16:16;;;;;;;13.02;11.02;;;;;;;11.42;100.00;101703.28;5093931;28;20024;-39
2024/03/22 10:18:42;;;;;;;13.02;11.43;;;;;;;11.46;100.00;101705.34;5094615;28;20044;-39
2024/03/22 10:21:07;;;;;;;12.90;11.50;;;;;;;11.45;100.00;101711.81;5094450;28;20030;-39
2024/03/22 10:23:33;;;;;;;12.87;10.23;;;;;;;11.44;100.00;101710.16;5094206;28;20020;-39
2024/03/22 10:26:01;;;;;;;15.15;10.98;;;;;;;11.46;100.00;101709.94;5093893;28;20296;-39
2024/03/22 10:28:27;;;;;;;11.57;10.25;;;;;;;11.38;100.00;101705.59;5093549;28;20476;-39
2024/03/22 10:30:53;;;;;;;13.43;10.35;;;;;;;11.30;100.00;101695.00;5094647;28;20035;-39
2024/03/22 10:33:19;;;;;;;11.57;10.05;;;;;;;11.33;100.00;101703.53;5093501;28;20116;-38
2024/03/22 10:35:46;;;;;;;14.43;10.93;;;;;;;11.37;100.00;101703.94;5093920;28;20062;-39
2024/03/22 10:38:12;;;;;;;10.32;9.15;;;;;;;11.29;100.00;101687.94;5093404;28;20028;-38
2024/03/22 10:40:40;;;;;;;10.95;9.73;;;;;;;11.34;100.00;101701.66;5093640;28;20483;-39
2024/03/22 10:43:05;;;;;;;11.25;9.50;;;;;;;11.31;100.00;101700.19;5093819;28;20024;-39
2024/03/22 10:45:31;;;;;;;11.77;8.50;;;;;;;11.33;100.00;101702.72;5094430;28;20096;-39
2024/03/22 10:47:57;;;;;;;11.57;9.10;;;;;;;11.34;100.00;101704.38;5094038;28;20449;-39
2024/03/22 10:50:26;;;;;;;11.93;9.57;;;;;;;11.27;100.00;101708.97;5093928;28;20201;-39
2024/03/22 10:52:58;;;;;;;10.40;9.18;;;;;;;11.27;100.00;101703.56;5094238;28;20024;-39
2024/03/22 10:55:36;;;;;;;12.85;9.77;;;;;;;11.31;100.00;101704.78;5094231;28;20106;-39
2024/03/22 10:58:02;;;;;;;11.45;8.40;;;;;;;11.18;100.00;101704.88;5093082;28;20434;-39